Time;durP1;ratioP1;P1;durP2;ratioP2;P2;SDS_P1;SDS_P2;PMS_P1;PMS_P2;Temp;Humidity;BMP_temperature;BMP_pressure;BME280_temperature;BME280_humidity;BME280_pressure;Samples;Min_cycle;Max_cycle;Signal;HPM_P1;HPM_P2
2020/12/12 00:01:37;;;;;;;5.93;5.53;;;2.30;99.90;;;;;;4970832;28;20224;-77
2020/12/12 00:04:03;;;;;;;6.72;6.13;;;2.30;99.90;;;;;;4983973;28;20735;-76
2020/12/12 00:06:30;;;;;;;7.20;6.70;;;2.20;99.90;;;;;;4976707;28;20735;-75
2020/12/12 00:08:56;;;;;;;7.70;7.03;;;2.30;99.90;;;;;;4984152;28;20212;-75
2020/12/12 00:11:23;;;;;;;7.07;6.47;;;2.30;99.90;;;;;;4975021;28;20946;-75
2020/12/12 00:13:50;;;;;;;6.78;6.18;;;2.30;99.90;;;;;;4966089;28;20193;-75
2020/12/12 00:16:17;;;;;;;6.95;6.35;;;2.30;99.90;;;;;;4961963;28;20701;-77
2020/12/12 00:18:45;;;;;;;7.88;7.13;;;2.30;99.90;;;;;;4960625;28;20201;-77
2020/12/12 00:21:12;;;;;;;7.50;6.85;;;2.30;99.90;;;;;;4972138;28;20224;-75
2020/12/12 00:23:39;;;;;;;6.57;6.07;;;2.30;99.90;;;;;;4988511;28;20288;-76
2020/12/12 00:26:06;;;;;;;7.15;6.55;;;2.30;99.90;;;;;;4983068;28;20653;-77
2020/12/12 00:28:33;;;;;;;6.80;6.28;;;2.30;99.90;;;;;;4978826;28;20863;-75
2020/12/12 00:31:00;;;;;;;7.53;6.93;;;2.30;99.90;;;;;;4985583;28;20229;-76
2020/12/12 00:33:27;;;;;;;6.60;6.10;;;2.30;99.90;;;;;;4984856;28;20197;-78
2020/12/12 00:35:54;;;;;;;6.65;6.15;;;2.40;99.90;;;;;;4978651;28;20218;-76
2020/12/12 00:38:21;;;;;;;6.50;6.00;;;2.40;99.90;;;;;;4961860;28;20209;-77
2020/12/12 00:40:56;;;;;;;5.60;5.20;;;2.40;99.90;;;;;;4956664;28;20258;-75
2020/12/12 00:43:23;;;;;;;5.93;5.43;;;2.50;99.90;;;;;;4964263;28;20202;-77
2020/12/12 00:45:50;;;;;;;5.95;5.55;;;2.50;99.90;;;;;;4962895;28;20841;-75
2020/12/12 00:48:16;;;;;;;5.80;5.38;;;2.50;99.90;;;;;;4965101;28;20205;-76
2020/12/12 00:50:45;;;;;;;6.15;5.68;;;2.60;99.90;;;;;;4965031;28;20253;-76
2020/12/12 00:53:12;;;;;;;7.10;6.60;;;2.50;99.90;;;;;;4960365;28;20201;-77
2020/12/12 00:55:39;;;;;;;5.50;5.10;;;2.50;99.90;;;;;;4961482;28;20233;-75
2020/12/12 00:58:05;;;;;;;5.60;5.20;;;2.50;99.90;;;;;;4962579;28;20205;-76
2020/12/12 01:00:33;;;;;;;5.47;5.07;;;2.50;99.90;;;;;;4964531;28;20233;-79
2020/12/12 01:03:00;;;;;;;5.63;5.22;;;2.50;99.90;;;;;;4963487;28;20222;-77
2020/12/12 01:05:27;;;;;;;5.35;4.95;;;2.60;99.90;;;;;;4960307;28;20309;-77
2020/12/12 01:07:53;;;;;;;5.15;4.85;;;2.60;99.90;;;;;;4964352;28;20284;-79
2020/12/12 01:10:21;;;;;;;5.05;4.75;;;2.60;99.90;;;;;;4968197;28;20197;-79
2020/12/12 01:12:48;;;;;;;5.65;5.25;;;2.70;99.90;;;;;;4967619;28;20209;-77
2020/12/12 01:15:14;;;;;;;6.32;5.88;;;2.60;99.90;;;;;;4968666;28;20676;-77
2020/12/12 01:17:41;;;;;;;6.40;5.90;;;2.60;99.90;;;;;;4964350;28;20593;-76
2020/12/12 01:20:08;;;;;;;7.22;6.63;;;2.50;99.90;;;;;;4965430;28;20206;-77
2020/12/12 01:22:35;;;;;;;7.55;6.95;;;2.40;99.90;;;;;;4971555;28;20229;-78
2020/12/12 01:25:02;;;;;;;6.38;5.88;;;2.40;99.90;;;;;;4971788;28;20213;-76
2020/12/12 01:27:29;;;;;;;7.22;6.72;;;2.40;99.90;;;;;;4983243;28;20216;-77
2020/12/12 01:29:56;;;;;;;7.03;6.53;;;2.40;99.90;;;;;;4980905;28;20212;-77
2020/12/12 01:32:22;;;;;;;8.15;7.50;;;2.30;99.90;;;;;;4987326;28;20696;-75
2020/12/12 01:37:17;;;;;;;7.65;7.10;;;2.40;99.90;;;;;;4986577;28;20232;-76
2020/12/12 01:39:43;;;;;;;7.28;6.70;;;2.50;99.90;;;;;;4989226;28;20246;-74
2020/12/12 01:42:10;;;;;;;7.13;6.63;;;2.50;99.90;;;;;;4984943;28;20216;-76
2020/12/12 01:44:37;;;;;;;6.88;6.38;;;2.50;99.90;;;;;;4996324;28;20597;-74
2020/12/12 01:47:05;;;;;;;6.18;5.78;;;2.50;99.90;;;;;;4988153;28;20213;-75
2020/12/12 01:49:31;;;;;;;6.05;5.65;;;2.50;99.90;;;;;;4992328;28;20201;-75
2020/12/12 01:51:58;;;;;;;6.25;5.82;;;2.50;99.90;;;;;;4980307;28;20228;-75
2020/12/12 01:54:24;;;;;;;5.85;5.45;;;2.50;99.90;;;;;;4983152;28;20219;-74
2020/12/12 01:56:53;;;;;;;4.95;4.65;;;2.50;99.90;;;;;;4995335;28;20491;-75
2020/12/12 01:59:20;;;;;;;5.50;5.10;;;2.50;99.90;;;;;;5006109;28;20258;-76
2020/12/12 02:01:54;;;;;;;6.00;5.60;;;2.50;99.90;;;;;;5003941;28;20225;-75
2020/12/12 02:04:24;;;;;;;5.57;5.18;;;2.60;99.90;;;;;;4994486;28;20200;-75
2020/12/12 02:06:51;;;;;;;5.72;5.32;;;2.50;99.90;;;;;;5002018;28;20216;-75
2020/12/12 02:09:18;;;;;;;5.50;5.10;;;2.50;99.90;;;;;;5006972;28;20192;-76
2020/12/12 02:11:45;;;;;;;6.25;5.85;;;2.50;99.90;;;;;;5008386;28;20347;-75
2020/12/12 02:14:12;;;;;;;5.90;5.50;;;2.40;99.90;;;;;;5005054;28;20683;-76
2020/12/12 02:16:59;;;;;;;6.20;5.80;;;2.40;99.90;;;;;;4999163;28;20223;-76
2020/12/12 02:19:26;;;;;;;6.18;5.68;;;2.50;99.90;;;;;;5006657;28;20200;-76
2020/12/12 02:21:56;;;;;;;7.00;6.50;;;2.50;99.90;;;;;;5007906;28;20278;-77
2020/12/12 02:24:23;;;;;;;7.20;6.65;;;2.50;99.90;;;;;;5006590;28;20219;-75
2020/12/12 02:26:50;;;;;;;6.63;6.15;;;2.40;99.90;;;;;;4992424;28;20221;-74
2020/12/12 02:29:17;;;;;;;7.53;6.93;;;2.40;99.90;;;;;;4983570;28;20196;-75
2020/12/12 02:31:44;;;;;;;6.38;5.90;;;2.40;99.90;;;;;;4997610;28;20698;-75
2020/12/12 02:34:10;;;;;;;7.97;7.38;;;2.40;99.90;;;;;;5007293;28;20196;-76
2020/12/12 02:36:38;;;;;;;6.03;5.63;;;2.40;99.90;;;;;;5007616;28;20286;-75
2020/12/12 02:39:07;;;;;;;6.68;6.18;;;2.40;99.90;;;;;;5000941;28;20205;-75
2020/12/12 02:41:34;;;;;;;6.53;6.03;;;2.40;99.90;;;;;;5005817;28;20395;-76
2020/12/12 02:44:00;;;;;;;6.03;5.63;;;2.40;99.90;;;;;;5007149;28;20200;-75
2020/12/12 02:46:27;;;;;;;6.15;5.75;;;2.40;99.90;;;;;;5008965;28;20216;-75
2020/12/12 02:48:54;;;;;;;6.35;5.85;;;2.50;99.90;;;;;;5004689;28;20465;-75
2020/12/12 02:51:20;;;;;;;6.00;5.60;;;2.50;99.90;;;;;;4994371;28;20235;-75
2020/12/12 02:53:48;;;;;;;6.43;5.93;;;2.50;99.90;;;;;;5003758;28;20235;-75
2020/12/12 02:56:16;;;;;;;6.75;6.25;;;2.40;99.90;;;;;;5002332;28;20228;-75
2020/12/12 02:58:43;;;;;;;6.65;6.13;;;2.30;99.90;;;;;;5003566;28;20216;-76
2020/12/12 03:01:10;;;;;;;7.30;6.70;;;2.30;99.90;;;;;;5003167;28;20224;-76
2020/12/12 03:03:36;;;;;;;6.90;6.40;;;2.30;99.90;;;;;;5000600;28;20348;-75
2020/12/12 03:06:03;;;;;;;6.97;6.47;;;2.20;99.90;;;;;;5005926;28;20243;-75
2020/12/12 03:08:30;;;;;;;7.30;6.65;;;2.20;99.90;;;;;;5007593;28;20258;-75
2020/12/12 03:10:56;;;;;;;7.15;6.65;;;2.30;99.90;;;;;;5006392;28;20278;-78
2020/12/12 03:13:24;;;;;;;7.35;6.75;;;2.30;99.90;;;;;;5001686;28;20197;-77
2020/12/12 03:15:50;;;;;;;7.85;7.25;;;2.30;99.90;;;;;;5004998;28;20270;-77
2020/12/12 03:18:17;;;;;;;7.40;6.80;;;2.30;99.90;;;;;;5008331;28;20204;-77
2020/12/12 03:20:43;;;;;;;7.22;6.63;;;2.30;99.90;;;;;;5007887;28;20196;-77
2020/12/12 03:23:11;;;;;;;6.85;6.32;;;2.30;99.90;;;;;;5009271;28;20204;-77
2020/12/12 03:25:38;;;;;;;7.03;6.45;;;2.30;99.90;;;;;;5002921;28;20216;-76
2020/12/12 03:28:05;;;;;;;8.10;7.55;;;2.30;99.90;;;;;;5003661;28;20319;-76
2020/12/12 03:30:33;;;;;;;7.22;6.63;;;2.30;99.90;;;;;;5008629;28;20202;-77
2020/12/12 03:32:59;;;;;;;7.93;7.40;;;2.30;99.90;;;;;;5004479;28;20224;-76
2020/12/12 03:35:27;;;;;;;7.00;6.50;;;2.20;99.90;;;;;;5007286;28;20246;-77
2020/12/12 03:37:55;;;;;;;7.10;6.50;;;2.20;99.90;;;;;;5000215;28;20216;-76
2020/12/12 03:40:23;;;;;;;7.82;7.22;;;2.20;99.90;;;;;;5009569;28;20206;-76
2020/12/12 03:42:50;;;;;;;7.50;6.95;;;2.30;99.90;;;;;;5006963;28;20216;-77
2020/12/12 03:45:17;;;;;;;7.57;7.00;;;2.20;99.90;;;;;;5008408;28;20596;-77
2020/12/12 03:47:44;;;;;;;7.82;7.03;;;2.10;99.90;;;;;;5004718;28;20216;-78
2020/12/12 03:50:11;;;;;;;8.88;8.18;;;2.00;99.90;;;;;;5000071;28;20599;-75
2020/12/12 03:52:37;;;;;;;8.88;8.07;;;2.00;99.90;;;;;;5001986;28;20228;-75
2020/12/12 03:55:04;;;;;;;8.98;8.23;;;1.90;99.90;;;;;;5006741;28;20705;-76
2020/12/12 03:57:31;;;;;;;8.52;7.82;;;1.90;99.90;;;;;;5007299;28;20217;-75
2020/12/12 03:59:57;;;;;;;10.05;9.07;;;1.80;99.90;;;;;;5002554;28;20200;-75
2020/12/12 04:02:24;;;;;;;9.25;8.55;;;1.70;99.90;;;;;;5005439;28;20212;-75
2020/12/12 04:04:51;;;;;;;8.85;8.15;;;1.70;99.90;;;;;;5008148;28;20244;-75
2020/12/12 04:07:18;;;;;;;7.70;7.10;;;1.70;99.90;;;;;;4994343;28;20231;-76
2020/12/12 04:09:44;;;;;;;7.43;6.88;;;1.70;99.90;;;;;;4989820;28;20758;-75
2020/12/12 04:12:11;;;;;;;8.25;7.63;;;1.80;99.90;;;;;;4980424;28;20722;-75
2020/12/12 04:14:37;;;;;;;7.32;6.82;;;1.90;99.90;;;;;;4986746;28;20206;-75
2020/12/12 04:17:04;;;;;;;7.82;7.20;;;2.00;99.90;;;;;;4991164;28;20224;-75
2020/12/12 04:19:30;;;;;;;7.03;6.43;;;2.10;99.90;;;;;;4988188;28;20197;-75
2020/12/12 04:21:59;;;;;;;7.10;6.60;;;2.10;99.90;;;;;;4995891;28;20287;-75
2020/12/12 04:24:25;;;;;;;6.63;6.13;;;2.10;99.90;;;;;;5002225;28;20197;-74
2020/12/12 04:26:52;;;;;;;6.40;5.90;;;2.10;99.90;;;;;;5005316;28;20223;-75
2020/12/12 04:29:18;;;;;;;5.30;5.00;;;2.10;99.90;;;;;;5006673;28;20208;-74
2020/12/12 04:31:45;;;;;;;6.13;5.72;;;2.20;99.90;;;;;;4996053;28;20275;-75
2020/12/12 04:34:11;;;;;;;5.93;5.53;;;2.20;99.90;;;;;;4985744;28;20197;-75
2020/12/12 04:36:38;;;;;;;5.97;5.57;;;2.20;99.90;;;;;;4986448;28;20212;-76
2020/12/12 04:39:06;;;;;;;5.25;4.95;;;2.20;99.90;;;;;;5005915;28;20251;-75
2020/12/12 04:41:35;;;;;;;5.82;5.43;;;2.20;99.90;;;;;;5004734;28;20248;-75
2020/12/12 04:44:02;;;;;;;5.93;5.55;;;2.20;99.90;;;;;;5008796;28;20199;-76
2020/12/12 04:46:29;;;;;;;5.95;5.55;;;2.30;99.90;;;;;;4999447;28;20619;-75
2020/12/12 04:48:56;;;;;;;5.80;5.40;;;2.30;99.90;;;;;;4980849;28;20205;-74
2020/12/12 04:51:23;;;;;;;5.95;5.55;;;2.30;99.90;;;;;;4988706;28;20220;-76
2020/12/12 04:53:55;;;;;;;6.32;5.90;;;2.40;99.90;;;;;;5003845;28;20624;-75
2020/12/12 04:56:25;;;;;;;6.13;5.72;;;2.40;99.90;;;;;;5000097;28;20228;-75
2020/12/12 04:58:52;;;;;;;7.13;6.55;;;2.40;99.90;;;;;;4988247;28;20200;-76
2020/12/12 05:01:19;;;;;;;6.10;5.70;;;2.40;99.90;;;;;;4976298;28;20225;-76
2020/12/12 05:03:47;;;;;;;6.50;5.75;;;2.30;99.90;;;;;;4988982;28;20670;-76
2020/12/12 05:06:13;;;;;;;6.32;5.93;;;2.30;99.90;;;;;;4990752;28;20722;-76
2020/12/12 05:08:40;;;;;;;6.13;5.68;;;2.30;99.90;;;;;;5006676;28;20223;-76
2020/12/12 05:11:07;;;;;;;6.45;5.95;;;2.40;99.90;;;;;;5001605;28;20307;-77
2020/12/12 05:13:34;;;;;;;6.40;5.90;;;2.40;99.90;;;;;;5002361;28;20212;-76
2020/12/12 05:16:01;;;;;;;6.20;5.70;;;2.40;99.90;;;;;;5005989;28;20266;-75
2020/12/12 05:18:27;;;;;;;6.07;5.68;;;2.40;99.90;;;;;;5004596;28;20615;-75
2020/12/12 05:20:54;;;;;;;5.78;5.35;;;2.40;99.90;;;;;;5004397;28;20286;-76
2020/12/12 05:23:21;;;;;;;5.93;5.43;;;2.40;99.90;;;;;;4997862;28;20255;-75
2020/12/12 05:25:49;;;;;;;6.57;6.07;;;2.40;99.90;;;;;;5001619;28;20224;-75
2020/12/12 05:28:18;;;;;;;5.80;5.40;;;2.40;99.90;;;;;;5005623;28;20601;-76
2020/12/12 05:30:46;;;;;;;6.05;5.65;;;2.40;99.90;;;;;;5005148;28;20200;-75
2020/12/12 05:33:16;;;;;;;6.35;5.85;;;2.40;99.90;;;;;;5004277;28;20740;-76
2020/12/12 05:35:43;;;;;;;5.75;5.35;;;2.40;99.90;;;;;;4995122;28;20239;-75
2020/12/12 05:38:11;;;;;;;6.43;5.93;;;2.40;99.90;;;;;;5005552;28;20212;-76
2020/12/12 05:40:38;;;;;;;7.07;6.47;;;2.40;99.90;;;;;;5003549;28;20467;-75
2020/12/12 05:43:07;;;;;;;6.32;5.93;;;2.40;99.90;;;;;;5004790;28;20590;-76
2020/12/12 05:45:34;;;;;;;7.63;7.03;;;2.30;99.90;;;;;;5004006;28;20211;-76
2020/12/12 05:48:03;;;;;;;8.25;7.45;;;2.40;99.90;;;;;;4996977;28;20220;-74
2020/12/12 05:50:29;;;;;;;7.20;6.65;;;2.30;99.90;;;;;;5004483;28;20203;-76
2020/12/12 05:52:56;;;;;;;7.40;6.80;;;2.40;99.90;;;;;;5005022;28;20216;-74
2020/12/12 05:55:46;;;;;;;7.38;6.78;;;2.40;99.90;;;;;;5007141;28;20274;-76
2020/12/12 05:58:14;;;;;;;7.35;6.75;;;2.40;99.90;;;;;;4999812;28;20334;-75
2020/12/12 06:00:41;;;;;;;7.68;7.07;;;2.40;99.90;;;;;;5002434;28;20223;-75
2020/12/12 06:03:16;;;;;;;8.07;7.38;;;2.40;99.90;;;;;;5004554;28;20304;-76
2020/12/12 06:05:48;;;;;;;8.32;7.63;;;2.40;99.90;;;;;;5003838;28;20258;-76
2020/12/12 06:08:23;;;;;;;8.05;7.45;;;2.40;99.90;;;;;;5005039;28;20286;-75
2020/12/12 06:10:55;;;;;;;8.43;7.72;;;2.40;99.90;;;;;;4995777;28;20203;-76
2020/12/12 06:13:26;;;;;;;8.13;7.53;;;2.40;99.90;;;;;;5001430;28;20219;-74
2020/12/12 06:15:57;;;;;;;7.22;6.72;;;2.40;99.90;;;;;;5006678;28;20224;-76
2020/12/12 06:18:38;;;;;;;6.25;5.75;;;2.40;99.90;;;;;;5007213;28;20220;-76
2020/12/12 06:21:08;;;;;;;7.90;7.30;;;2.40;99.90;;;;;;5003358;28;20695;-74
2020/12/12 06:23:38;;;;;;;7.38;6.72;;;2.40;99.90;;;;;;5000852;28;20193;-76
2020/12/12 06:26:05;;;;;;;7.22;6.72;;;2.40;99.90;;;;;;5000543;28;20239;-76
2020/12/12 06:28:40;;;;;;;7.63;7.03;;;2.40;99.90;;;;;;5007877;28;20219;-75
2020/12/12 06:31:07;;;;;;;7.07;6.57;;;2.40;99.90;;;;;;5009274;28;20923;-74
2020/12/12 06:33:49;;;;;;;6.38;5.95;;;2.30;99.90;;;;;;5005441;28;20196;-76
2020/12/12 06:36:26;;;;;;;6.22;5.72;;;2.30;99.90;;;;;;5003103;28;20255;-75
2020/12/12 06:39:20;;;;;;;6.63;6.13;;;2.30;99.90;;;;;;5008502;28;20198;-76
2020/12/12 06:41:49;;;;;;;5.93;5.50;;;2.40;99.90;;;;;;5004311;28;20270;-76
2020/12/12 06:44:34;;;;;;;5.95;5.55;;;2.40;99.90;;;;;;5004485;28;20193;-75
2020/12/12 06:47:01;;;;;;;5.65;5.15;;;2.40;99.90;;;;;;4996633;28;20231;-77
2020/12/12 06:49:29;;;;;;;5.63;5.22;;;2.40;99.90;;;;;;5008505;28;20196;-76
2020/12/12 06:51:56;;;;;;;6.13;5.63;;;2.40;99.90;;;;;;5004679;28;20212;-76
2020/12/12 06:54:23;;;;;;;6.53;6.03;;;2.40;99.90;;;;;;5008818;28;20204;-76
2020/12/12 06:56:49;;;;;;;6.93;6.32;;;2.40;99.90;;;;;;5005968;28;20603;-76
2020/12/12 06:59:27;;;;;;;5.75;5.35;;;2.30;99.90;;;;;;5005236;28;20296;-77
2020/12/12 07:01:54;;;;;;;6.00;5.60;;;2.40;99.90;;;;;;5006881;28;20220;-75
2020/12/12 07:04:33;;;;;;;5.75;5.43;;;2.30;99.90;;;;;;5012745;28;20663;-75
2020/12/12 07:07:07;;;;;;;5.93;5.53;;;2.40;99.90;;;;;;5008153;28;20216;-75
2020/12/12 07:09:35;;;;;;;6.38;5.88;;;2.40;99.90;;;;;;5009431;28;20646;-75
2020/12/12 07:12:02;;;;;;;6.90;6.40;;;2.40;99.90;;;;;;5005212;28;20216;-75
2020/12/12 07:14:28;;;;;;;6.68;6.07;;;2.50;99.90;;;;;;5011024;28;20200;-76
2020/12/12 07:16:56;;;;;;;6.43;6.00;;;2.50;99.90;;;;;;5010501;28;20278;-75
2020/12/12 07:19:32;;;;;;;6.75;6.25;;;2.50;99.90;;;;;;5009051;28;20619;-75
2020/12/12 07:21:58;;;;;;;6.55;6.05;;;2.50;99.90;;;;;;5008104;28;20227;-75
2020/12/12 07:24:25;;;;;;;6.35;5.85;;;2.50;99.90;;;;;;5001436;28;20196;-74
2020/12/12 07:26:52;;;;;;;7.40;6.82;;;2.50;99.90;;;;;;5010530;28;20282;-76
2020/12/12 07:29:19;;;;;;;7.00;6.43;;;2.50;99.90;;;;;;5009961;28;20223;-75
2020/12/12 07:31:45;;;;;;;7.18;6.68;;;2.50;99.90;;;;;;5007059;28;20239;-77
2020/12/12 07:34:16;;;;;;;6.68;6.18;;;2.50;99.90;;;;;;4983026;28;20193;-73
2020/12/12 07:36:43;;;;;;;7.63;6.93;;;2.50;99.90;;;;;;5006540;23;20232;-77
2020/12/12 07:39:10;;;;;;;7.75;7.13;;;2.50;99.90;;;;;;5005142;28;20322;-79
2020/12/12 07:41:45;;;;;;;9.65;8.82;;;2.50;99.90;;;;;;5008866;28;20232;-77
2020/12/12 07:44:12;;;;;;;7.60;7.00;;;2.60;99.90;;;;;;5007529;28;20202;-77
2020/12/12 07:46:39;;;;;;;7.35;6.75;;;2.60;99.90;;;;;;5002720;28;20710;-78
2020/12/12 07:49:07;;;;;;;7.95;7.25;;;2.60;99.90;;;;;;5023058;28;21545;-76
2020/12/12 07:51:34;;;;;;;7.90;7.30;;;2.70;99.90;;;;;;5019531;28;20660;-78
2020/12/12 07:54:11;;;;;;;7.60;6.90;;;2.70;99.90;;;;;;5006955;28;20196;-79
2020/12/12 07:56:47;;;;;;;6.75;6.07;;;2.80;99.90;;;;;;5007307;28;20223;-82
2020/12/12 07:59:19;;;;;;;10.75;9.32;;;2.90;99.90;;;;;;5002161;28;20196;-77
2020/12/12 08:01:47;;;;;;;12.55;10.57;;;2.90;99.90;;;;;;5006167;28;20311;-78
2020/12/12 08:04:18;;;;;;;9.35;8.45;;;2.90;99.90;;;;;;5004050;28;20249;-77
2020/12/12 08:06:45;;;;;;;8.27;7.53;;;3.00;99.90;;;;;;5007519;28;20228;-78
2020/12/12 08:09:17;;;;;;;7.38;6.68;;;3.00;99.90;;;;;;5007331;28;20200;-76
2020/12/12 08:11:43;;;;;;;7.32;6.68;;;3.00;99.90;;;;;;5001568;28;20475;-76
2020/12/12 08:14:10;;;;;;;7.43;6.82;;;2.90;99.90;;;;;;5008624;28;20235;-77
2020/12/12 08:16:42;;;;;;;7.93;7.22;;;3.00;99.90;;;;;;5000314;28;20227;-76
2020/12/12 08:19:08;;;;;;;8.50;7.80;;;3.10;99.90;;;;;;4997524;28;20196;-75
2020/12/12 08:21:36;;;;;;;8.20;7.50;;;3.00;99.90;;;;;;4997220;28;20200;-77
2020/12/12 08:24:05;;;;;;;8.95;8.15;;;3.00;99.90;;;;;;5000798;28;20225;-75
2020/12/12 08:26:35;;;;;;;9.32;8.43;;;3.00;99.90;;;;;;5004215;28;20216;-77
2020/12/12 08:29:03;;;;;;;8.77;7.97;;;2.90;99.90;;;;;;5004881;28;20256;-77
2020/12/12 08:31:36;;;;;;;8.88;8.18;;;2.90;99.90;;;;;;5001134;28;20199;-78
2020/12/12 08:34:03;;;;;;;8.98;8.18;;;2.90;99.90;;;;;;5003287;28;20228;-76
2020/12/12 08:36:31;;;;;;;8.90;8.20;;;3.00;99.90;;;;;;5005413;28;20239;-75
2020/12/12 08:39:00;;;;;;;8.02;7.28;;;2.90;99.90;;;;;;4998837;28;20192;-77
2020/12/12 08:41:30;;;;;;;8.90;8.07;;;2.90;99.90;;;;;;4994303;28;20470;-76
2020/12/12 08:43:58;;;;;;;8.93;8.13;;;2.90;99.90;;;;;;4999989;28;20843;-76
2020/12/12 08:46:25;;;;;;;9.07;8.23;;;2.90;99.90;;;;;;4991779;28;20225;-76
2020/12/12 08:48:54;;;;;;;9.40;8.57;;;3.00;99.90;;;;;;5013858;28;20698;-77
2020/12/12 08:51:26;;;;;;;9.55;8.65;;;3.00;99.90;;;;;;5014576;28;20221;-77
2020/12/12 08:53:53;;;;;;;9.02;8.23;;;3.00;99.90;;;;;;5006662;28;20222;-76
2020/12/12 08:56:28;;;;;;;10.32;9.30;;;3.10;99.90;;;;;;5003248;28;20634;-75
2020/12/12 08:58:57;;;;;;;9.27;8.38;;;3.10;99.90;;;;;;5015727;28;20219;-77
2020/12/12 09:01:32;;;;;;;9.88;8.98;;;3.10;99.90;;;;;;5017253;28;20220;-76
2020/12/12 09:04:01;;;;;;;10.93;9.93;;;3.10;99.90;;;;;;5015858;28;20218;-77
2020/12/12 09:06:29;;;;;;;11.43;10.32;;;3.10;99.90;;;;;;5019979;28;20214;-78
2020/12/12 09:09:18;;;;;;;10.30;9.40;;;3.10;99.90;;;;;;5012123;28;20219;-75
2020/12/12 09:11:46;;;;;;;11.68;10.57;;;3.20;99.90;;;;;;5013762;28;20265;-77
2020/12/12 09:14:13;;;;;;;10.82;8.93;;;3.30;99.90;;;;;;5002442;28;20659;-76
2020/12/12 09:16:46;;;;;;;10.18;9.18;;;3.30;99.90;;;;;;5003120;28;20211;-76
2020/12/12 09:19:13;;;;;;;10.35;9.48;;;3.40;99.90;;;;;;5002521;28;20207;-76
2020/12/12 09:21:39;;;;;;;9.85;8.85;;;3.40;99.90;;;;;;5000355;28;20200;-76
2020/12/12 09:24:06;;;;;;;11.32;10.32;;;3.40;99.90;;;;;;5002580;28;20204;-76
2020/12/12 09:26:32;;;;;;;10.63;9.60;;;3.40;99.90;;;;;;5005073;28;20224;-77
2020/12/12 09:28:59;;;;;;;10.73;9.63;;;3.40;99.90;;;;;;5022829;28;20235;-77
2020/12/12 09:31:26;;;;;;;10.82;9.73;;;3.30;99.90;;;;;;5017519;28;20196;-76
2020/12/12 09:33:54;;;;;;;10.57;9.50;;;3.30;99.90;;;;;;5014253;28;20690;-75
2020/12/12 09:36:20;;;;;;;9.82;8.82;;;3.30;99.90;;;;;;5018076;28;20230;-75
2020/12/12 09:38:47;;;;;;;10.18;9.25;;;3.30;99.90;;;;;;5015772;28;20431;-75
2020/12/12 09:41:14;;;;;;;9.95;9.05;;;3.30;99.90;;;;;;5018156;28;20363;-76
2020/12/12 09:43:41;;;;;;;10.20;9.32;;;3.40;99.90;;;;;;5017152;28;20248;-75
2020/12/12 09:46:08;;;;;;;10.25;9.20;;;3.50;99.90;;;;;;5009389;28;20215;-76
2020/12/12 09:48:34;;;;;;;10.32;9.43;;;3.60;99.90;;;;;;5016563;28;20231;-76
2020/12/12 09:51:03;;;;;;;10.75;9.68;;;3.70;99.90;;;;;;5016298;28;20198;-75
2020/12/12 09:53:29;;;;;;;11.48;10.38;;;3.80;99.90;;;;;;5017218;28;20718;-75
2020/12/12 09:55:56;;;;;;;13.27;10.25;;;3.80;99.90;;;;;;5016075;28;20215;-76
2020/12/12 09:58:25;;;;;;;10.90;9.93;;;3.90;99.90;;;;;;5010260;28;20222;-77
2020/12/12 10:00:52;;;;;;;10.85;9.85;;;4.00;99.90;;;;;;5016630;28;20195;-75
2020/12/12 10:03:19;;;;;;;10.30;9.40;;;4.10;99.90;;;;;;5018494;28;20739;-74
2020/12/12 10:05:46;;;;;;;10.88;9.77;;;4.10;99.90;;;;;;5019190;28;20230;-75
2020/12/12 10:08:14;;;;;;;9.52;8.73;;;4.20;99.90;;;;;;5013035;28;20987;-75
2020/12/12 10:10:40;;;;;;;9.48;8.68;;;4.30;99.90;;;;;;5017799;28;20202;-75
2020/12/12 10:13:07;;;;;;;10.35;9.35;;;4.40;99.90;;;;;;5018532;28;20223;-77
2020/12/12 10:15:34;;;;;;;10.95;9.95;;;4.30;99.90;;;;;;5017801;28;20219;-76
2020/12/12 10:18:01;;;;;;;10.48;9.57;;;4.40;99.90;;;;;;5016686;28;20220;-75
2020/12/12 10:20:27;;;;;;;10.27;9.27;;;4.40;99.90;;;;;;5027248;28;20208;-74
2020/12/12 10:22:54;;;;;;;10.77;9.43;;;4.40;99.90;;;;;;5017416;28;20226;-74
2020/12/12 10:25:22;;;;;;;8.85;8.05;;;4.50;99.90;;;;;;5017921;28;20644;-76
2020/12/12 10:27:49;;;;;;;11.35;8.77;;;4.50;99.90;;;;;;5011866;28;20211;-75
2020/12/12 10:30:15;;;;;;;11.45;9.95;;;4.50;99.90;;;;;;5023188;28;20199;-76
2020/12/12 10:32:42;;;;;;;9.38;8.55;;;4.50;99.90;;;;;;5009930;28;20743;-73
2020/12/12 10:35:10;;;;;;;8.77;7.97;;;4.50;99.90;;;;;;5017750;28;20192;-75
2020/12/12 10:37:36;;;;;;;9.63;8.73;;;4.50;99.90;;;;;;5021926;28;20220;-74
2020/12/12 10:40:11;;;;;;;9.43;8.63;;;4.60;99.90;;;;;;5019458;28;20620;-76
2020/12/12 10:42:38;;;;;;;11.77;10.68;;;4.60;99.90;;;;;;5021351;28;20262;-77
2020/12/12 10:45:06;;;;;;;11.57;10.57;;;4.60;99.90;;;;;;5014002;28;20219;-77
2020/12/12 10:47:32;;;;;;;10.82;9.80;;;4.60;99.90;;;;;;5017319;28;20239;-75
2020/12/12 10:49:59;;;;;;;11.52;9.30;;;4.60;99.90;;;;;;5019621;28;20192;-75
2020/12/12 10:52:26;;;;;;;11.00;9.90;;;4.70;99.90;;;;;;5022388;28;20226;-77
2020/12/12 10:54:53;;;;;;;9.20;8.27;;;4.80;99.90;;;;;;5019298;28;20198;-76
2020/12/12 10:57:22;;;;;;;8.60;7.85;;;4.80;99.90;;;;;;5015249;28;20231;-77
2020/12/12 10:59:49;;;;;;;8.00;7.30;;;4.80;99.90;;;;;;5020163;28;20250;-75
2020/12/12 11:02:16;;;;;;;8.00;7.30;;;4.90;99.90;;;;;;5013143;28;20232;-75
2020/12/12 11:04:43;;;;;;;8.00;7.30;;;5.00;99.90;;;;;;5019711;28;20254;-75
2020/12/12 11:07:11;;;;;;;7.18;6.57;;;5.00;99.90;;;;;;5015735;28;20215;-76
2020/12/12 11:09:38;;;;;;;7.38;6.68;;;5.10;99.90;;;;;;5015763;28;20207;-76
2020/12/12 11:12:05;;;;;;;7.45;6.85;;;5.30;99.90;;;;;;5028677;28;20218;-75
2020/12/12 11:14:33;;;;;;;7.35;6.75;;;5.50;99.90;;;;;;5021588;28;20200;-74
2020/12/12 11:17:01;;;;;;;7.40;6.80;;;5.70;99.90;;;;;;5017753;28;20322;-74
2020/12/12 11:19:28;;;;;;;7.60;6.85;;;5.90;99.90;;;;;;5016165;28;20220;-74
2020/12/12 11:21:56;;;;;;;7.35;6.70;;;6.60;99.90;;;;;;5022718;28;20195;-74
2020/12/12 11:24:23;;;;;;;8.35;7.65;;;7.40;99.90;;;;;;5000403;28;20223;-75
2020/12/12 11:26:50;;;;;;;8.00;7.20;;;8.10;99.90;;;;;;4999531;28;20223;-74
2020/12/12 11:29:17;;;;;;;7.38;6.63;;;8.40;99.90;;;;;;5001975;28;20220;-75
2020/12/12 11:31:47;;;;;;;7.03;6.40;;;8.50;99.90;;;;;;4996510;28;20201;-73
2020/12/12 11:34:18;;;;;;;6.68;6.07;;;8.60;99.90;;;;;;4998947;28;20256;-73
2020/12/12 11:36:57;;;;;;;7.50;6.80;;;8.70;99.90;;;;;;4999301;28;20256;-70
2020/12/12 11:39:28;;;;;;;7.43;6.82;;;8.90;99.90;;;;;;5016288;28;20215;-73
2020/12/12 11:45:00;;;;;;;7.22;6.63;;;8.60;99.90;;;;;;4961223;28;20331;-73
2020/12/12 11:47:27;;;;;;;6.15;5.65;;;8.50;99.90;;;;;;5002456;28;20235;-73
2020/12/12 11:49:54;;;;;;;7.03;6.38;;;8.40;99.90;;;;;;5000360;28;20203;-72
2020/12/12 11:52:22;;;;;;;6.85;6.15;;;8.50;99.90;;;;;;5002472;28;20252;-75
2020/12/12 11:54:48;;;;;;;8.40;6.03;;;8.40;99.90;;;;;;5001654;28;20291;-74
2020/12/12 11:57:15;;;;;;;6.13;5.63;;;8.20;99.90;;;;;;4996750;28;20598;-74
2020/12/12 11:59:43;;;;;;;6.47;5.97;;;8.00;99.90;;;;;;5001323;28;20659;-73
2020/12/12 12:02:10;;;;;;;5.90;5.32;;;7.70;99.90;;;;;;4999241;28;20649;-74
2020/12/12 12:04:36;;;;;;;5.63;5.18;;;7.50;99.90;;;;;;5006563;28;20235;-73
2020/12/12 12:07:05;;;;;;;6.50;5.93;;;7.20;99.90;;;;;;4996438;28;20587;-72
2020/12/12 12:09:36;;;;;;;6.60;6.10;;;7.00;99.90;;;;;;5001212;28;21131;-72
2020/12/12 12:12:04;;;;;;;6.82;6.22;;;6.80;99.90;;;;;;5004076;28;20236;-73
2020/12/12 12:14:30;;;;;;;6.55;6.05;;;6.80;99.90;;;;;;4999642;28;20235;-73
2020/12/12 12:16:57;;;;;;;6.55;6.00;;;6.80;99.90;;;;;;5005212;28;20220;-73
2020/12/12 12:19:24;;;;;;;5.90;5.47;;;6.90;99.90;;;;;;5008343;28;20224;-73
2020/12/12 12:21:52;;;;;;;6.97;6.32;;;6.80;99.90;;;;;;5017361;28;20200;-73
2020/12/12 12:24:20;;;;;;;6.97;6.35;;;6.60;99.90;;;;;;5004623;28;20228;-73
2020/12/12 12:26:48;;;;;;;6.28;5.78;;;6.70;99.90;;;;;;4998977;28;20212;-73
2020/12/12 12:29:16;;;;;;;7.35;6.53;;;6.60;99.90;;;;;;4996361;28;20223;-73
2020/12/12 12:31:44;;;;;;;6.40;5.93;;;6.50;99.90;;;;;;4992387;28;20200;-73
2020/12/12 12:34:11;;;;;;;7.22;6.53;;;6.40;99.90;;;;;;5004359;28;20224;-72
2020/12/12 12:36:39;;;;;;;6.57;6.07;;;6.30;99.90;;;;;;5004894;28;20609;-73
2020/12/12 12:39:07;;;;;;;6.00;5.50;;;6.30;99.90;;;;;;5001844;28;20252;-73
2020/12/12 12:41:35;;;;;;;6.90;6.30;;;6.20;99.90;;;;;;5004644;28;20197;-73
2020/12/12 12:44:03;;;;;;;6.55;6.05;;;6.10;99.90;;;;;;5000287;28;20231;-73
2020/12/12 12:46:31;;;;;;;6.68;6.07;;;6.10;99.90;;;;;;5004404;28;20307;-73
2020/12/12 12:48:57;;;;;;;6.85;6.28;;;6.10;99.90;;;;;;5004509;28;20247;-73
2020/12/12 12:51:24;;;;;;;7.07;6.25;;;6.10;99.90;;;;;;5000896;28;20204;-73
2020/12/12 12:53:51;;;;;;;6.50;6.00;;;6.20;99.90;;;;;;5003619;28;20227;-73
2020/12/12 12:56:21;;;;;;;9.32;6.55;;;6.20;99.90;;;;;;5001766;28;20220;-74
2020/12/12 12:58:49;;;;;;;6.85;6.25;;;6.20;99.90;;;;;;5015510;28;20774;-73
2020/12/12 13:01:23;;;;;;;7.03;6.43;;;6.20;99.90;;;;;;5007914;28;20196;-73
2020/12/12 13:03:50;;;;;;;6.85;6.25;;;6.20;99.90;;;;;;5000814;28;20215;-74
2020/12/12 13:06:18;;;;;;;7.68;6.78;;;6.20;99.90;;;;;;5002450;28;20237;-73